Hull, United Kingdom
Current Conditions -  °F | °C
As of 12:50 PM on Thursday 18 Dec 2014 (Local Time) from EGXV Reporting Station
Broken Clouds Broken Clouds  
Wind Chill: 57°   Ceiling: 2600
Heat Index: 57°   Visibility: 6mi
Dew Point: 50°   Wind: 22mph
Humidity: 77%   Direction: 240°WSW
Pressure: 29.47"   Gusts: 36mph
Location:  53.74°N, 0.34°W
Report Text: EGXV 181250Z AUTO 24019G31KT 9999 SCT020/// BKN026/// 14/10 Q0998
Loading
Personal Weather Stations






























Interactive Weather Map New forecast layout! Learn more

10-Day Weather Forecast

Advertisements
Track Severe Weather on mobile